createdAt,value
2018-04-16T15:22:46.494Z,17.78
2018-04-16T15:25:13.368Z,17.77
2018-04-16T15:27:40.247Z,17.78
2018-04-16T15:30:07.119Z,17.80
2018-04-16T15:32:34.000Z,17.75
2018-04-16T15:35:00.876Z,17.76
2018-04-16T15:37:27.748Z,17.75
2018-04-16T15:39:54.688Z,17.75
2018-04-16T15:42:21.572Z,17.74
2018-04-16T15:44:48.431Z,17.73
2018-04-16T15:47:15.315Z,17.73
2018-04-16T15:49:42.188Z,17.74
2018-04-16T15:52:09.120Z,17.70
2018-04-16T15:54:35.975Z,17.65
2018-04-16T15:57:02.851Z,17.64
2018-04-16T15:59:29.727Z,17.61
2018-04-16T16:01:56.613Z,17.55
2018-04-16T16:04:23.548Z,17.53
2018-04-16T16:06:49.092Z,17.49
2018-04-16T16:09:15.963Z,17.47
2018-04-16T16:11:42.841Z,17.44
2018-04-16T16:14:09.762Z,17.41
2018-04-16T16:16:36.639Z,17.41
2018-04-16T16:19:03.527Z,17.38
2018-04-16T16:21:30.415Z,17.29
2018-04-16T16:23:57.279Z,17.33
2018-04-16T16:26:24.161Z,17.37
2018-04-16T16:28:51.032Z,17.39
2018-04-16T16:31:17.924Z,17.40
2018-04-16T16:33:45.596Z,17.42
2018-04-16T16:36:13.256Z,17.63
2018-04-16T16:38:40.925Z,20.85
2018-04-16T16:41:08.853Z,19.91
2018-04-16T16:43:36.911Z,18.93
2018-04-16T16:46:04.695Z,18.28
2018-04-16T16:48:32.322Z,17.77
2018-04-16T16:50:59.968Z,17.44
2018-04-16T16:53:27.616Z,17.25
2018-04-16T16:55:55.268Z,17.13
2018-04-16T16:58:22.923Z,17.06
2018-04-16T17:00:50.561Z,16.92
2018-04-16T17:03:18.220Z,16.89
2018-04-16T17:05:45.943Z,16.84
2018-04-16T17:08:13.731Z,16.77
2018-04-16T17:10:41.414Z,16.72
2018-04-16T17:13:09.093Z,16.68
2018-04-16T17:15:36.732Z,16.64
2018-04-16T17:18:04.388Z,16.64
2018-04-16T17:20:32.043Z,16.59
2018-04-16T17:22:59.691Z,16.58
2018-04-16T17:25:27.344Z,16.55
2018-04-16T17:27:55.002Z,16.53
2018-04-16T17:30:22.746Z,16.52
2018-04-16T17:32:51.004Z,16.48
2018-04-16T17:35:18.650Z,16.43
2018-04-16T17:37:46.295Z,16.36
2018-04-16T17:40:13.941Z,16.35
2018-04-16T17:42:41.599Z,16.42
2018-04-16T17:45:09.243Z,16.41
2018-04-16T17:47:37.493Z,16.32
2018-04-16T17:50:05.153Z,16.28
2018-04-16T17:52:33.328Z,16.22
2018-04-16T17:55:00.996Z,16.14
2018-04-16T17:57:28.625Z,16.09
2018-04-16T17:59:56.279Z,16.00
2018-04-16T18:02:23.940Z,15.94
2018-04-16T18:04:51.580Z,15.86
2018-04-16T18:07:19.229Z,15.82
2018-04-16T18:09:46.874Z,15.74
2018-04-16T18:12:14.524Z,15.72
2018-04-16T18:14:42.272Z,15.63
2018-04-16T18:17:09.890Z,15.59
2018-04-16T18:19:37.527Z,15.47
2018-04-16T18:22:05.221Z,15.42
2018-04-16T18:24:32.867Z,15.35
2018-04-16T18:27:00.530Z,15.27
2018-04-16T18:29:28.160Z,15.25
2018-04-16T18:31:55.815Z,15.22
2018-04-16T18:34:23.483Z,15.19
2018-04-16T18:36:51.131Z,15.07
2018-04-16T18:39:18.789Z,15.07
2018-04-16T18:41:46.437Z,15.03
2018-04-16T18:44:14.084Z,14.98
2018-04-16T18:46:41.732Z,14.94
2018-04-16T18:49:09.465Z,14.87
2018-04-16T18:51:37.104Z,14.85
2018-04-16T18:54:04.769Z,14.84
2018-04-16T18:56:32.469Z,14.76
2018-04-16T18:59:00.215Z,14.71
2018-04-16T19:01:27.873Z,14.71
2018-04-16T19:03:55.532Z,14.65
2018-04-16T19:06:23.178Z,14.61
2018-04-16T19:08:50.828Z,14.61
2018-04-16T19:11:18.480Z,14.55
2018-04-16T19:13:46.148Z,14.53
2018-04-16T19:16:13.853Z,14.55
2018-04-16T19:18:41.509Z,14.50
2018-04-16T19:21:14.676Z,14.44
2018-04-16T19:23:42.355Z,14.39
2018-04-16T19:26:09.995Z,14.37
2018-04-16T19:28:37.656Z,14.30
2018-04-16T19:31:05.321Z,14.30
2018-04-16T19:33:38.555Z,14.37
2018-04-16T19:36:06.228Z,14.33
2018-04-16T19:38:33.979Z,14.29
2018-04-16T19:41:01.724Z,14.30
2018-04-16T19:43:29.363Z,14.24
2018-04-16T19:45:57.012Z,14.25
2018-04-16T19:48:24.656Z,14.21
2018-04-16T19:50:52.298Z,14.23
2018-04-16T19:53:20.024Z,14.26
2018-04-16T19:55:53.490Z,14.19
2018-04-16T19:58:21.924Z,14.15
2018-04-16T20:00:49.667Z,14.13
2018-04-16T20:03:23.097Z,14.14
2018-04-16T20:05:50.735Z,14.18
2018-04-16T20:08:18.470Z,14.12
2018-04-16T20:10:46.103Z,14.07
2018-04-16T20:13:13.793Z,14.03
2018-04-16T20:15:41.455Z,13.98
2018-04-16T20:18:09.094Z,14.00
2018-04-16T20:20:36.748Z,14.00
2018-04-16T20:23:04.391Z,13.95
2018-04-16T20:25:32.044Z,13.90
2018-04-16T20:27:59.684Z,13.87
2018-04-16T20:30:27.336Z,13.79
2018-04-16T20:32:54.974Z,13.64
2018-04-16T20:35:22.640Z,13.51
2018-04-16T20:37:50.282Z,13.43
2018-04-16T20:40:17.944Z,13.34
2018-04-16T20:42:45.581Z,13.30
2018-04-16T20:45:13.228Z,13.27
2018-04-16T20:47:40.936Z,13.23
2018-04-16T20:50:08.692Z,13.23
2018-04-16T20:52:36.330Z,13.21
2018-04-16T20:55:03.980Z,13.12
2018-04-16T20:57:31.628Z,12.99
2018-04-16T20:59:59.276Z,12.99
2018-04-16T21:02:26.928Z,12.89
2018-04-16T21:04:54.585Z,12.82
2018-04-16T21:07:22.228Z,12.72
2018-04-16T21:09:49.896Z,12.58
2018-04-16T21:12:17.583Z,12.50
2018-04-16T21:14:45.305Z,12.45
2018-04-16T21:17:12.972Z,12.46
2018-04-16T21:19:40.628Z,12.36
2018-04-16T21:22:08.263Z,12.28
2018-04-16T21:24:36.021Z,12.22
2018-04-16T21:27:03.632Z,12.20
2018-04-16T21:29:31.359Z,12.08
2018-04-16T21:31:59.016Z,11.99
2018-04-16T21:34:26.669Z,11.97
2018-04-16T21:36:54.344Z,11.96
2018-04-16T21:39:22.115Z,11.93
2018-04-16T21:41:49.871Z,11.94
2018-04-16T21:44:17.635Z,11.99
2018-04-16T21:46:45.329Z,11.91
2018-04-16T21:49:12.934Z,11.80
2018-04-16T21:51:40.581Z,11.85
2018-04-16T21:54:08.223Z,11.92
2018-04-16T21:56:35.880Z,11.90
2018-04-16T21:59:03.522Z,11.90
2018-04-16T22:01:31.168Z,11.85
2018-04-16T22:03:58.803Z,11.85
2018-04-16T22:06:26.462Z,11.79
2018-04-16T22:08:54.096Z,11.78
2018-04-16T22:11:21.756Z,11.82
2018-04-16T22:13:49.395Z,11.79
2018-04-16T22:16:17.120Z,11.86
2018-04-16T22:18:44.768Z,11.86
2018-04-16T22:21:12.470Z,11.80
2018-04-16T22:23:40.084Z,11.71
2018-04-16T22:26:07.731Z,11.63
2018-04-16T22:28:35.364Z,11.56
2018-04-16T22:31:03.024Z,11.51
2018-04-16T22:33:30.708Z,11.37
2018-04-16T22:35:58.328Z,11.31
2018-04-16T22:38:25.963Z,11.27
2018-04-16T22:40:53.623Z,11.23
2018-04-16T22:43:21.273Z,11.19
2018-04-16T22:45:48.933Z,11.14
2018-04-16T22:48:16.571Z,11.12
2018-04-16T22:50:44.259Z,11.08
2018-04-16T22:53:11.906Z,10.95
2018-04-16T22:55:39.554Z,10.84
2018-04-16T22:58:07.287Z,10.78
2018-04-16T23:00:34.884Z,10.79
2018-04-16T23:03:02.561Z,10.79
2018-04-16T23:05:30.225Z,10.71
2018-04-16T23:07:57.871Z,10.68
2018-04-16T23:10:25.524Z,10.60
2018-04-16T23:12:53.178Z,10.62
2018-04-16T23:15:20.836Z,10.51
2018-04-16T23:17:48.496Z,10.48
2018-04-16T23:20:16.152Z,10.38
2018-04-16T23:22:43.795Z,10.33
2018-04-16T23:25:11.500Z,10.28
2018-04-16T23:27:39.165Z,10.24
2018-04-16T23:30:06.837Z,10.19
2018-04-16T23:32:34.471Z,10.10
2018-04-16T23:35:02.148Z,10.01
2018-04-16T23:37:29.801Z,10.01
2018-04-16T23:39:57.445Z,9.96
2018-04-16T23:42:25.102Z,9.92
2018-04-16T23:44:52.787Z,9.83
2018-04-16T23:47:20.452Z,9.81
2018-04-16T23:49:48.087Z,9.79
2018-04-16T23:52:15.734Z,9.81
2018-04-16T23:54:43.372Z,9.82
2018-04-16T23:57:11.028Z,9.84
2018-04-16T23:59:38.664Z,9.82
